createdAt,value
2019-03-22T00:00:37.850Z,102531.00
2019-03-22T00:03:08.724Z,102536.00
2019-03-22T00:05:39.554Z,102529.00
2019-03-22T00:08:10.498Z,102530.00
2019-03-22T00:10:41.386Z,102531.00
2019-03-22T00:13:12.236Z,102520.00
2019-03-22T00:15:43.128Z,102525.00
2019-03-22T00:18:16.881Z,102527.00
2019-03-22T00:20:47.750Z,102519.00
2019-03-22T00:23:19.535Z,102523.00
2019-03-22T00:25:50.408Z,102521.00
2019-03-22T00:28:21.164Z,102525.00
2019-03-22T00:30:53.497Z,102524.00
2019-03-22T00:33:24.582Z,102522.00
2019-03-22T00:35:55.637Z,102514.00
2019-03-22T00:38:26.860Z,102513.00
2019-03-22T00:40:57.716Z,102514.00
2019-03-22T00:43:28.623Z,102514.00
2019-03-22T00:45:59.781Z,102510.00
2019-03-22T00:48:30.711Z,102514.00
2019-03-22T00:51:01.650Z,102514.00
2019-03-22T00:53:32.595Z,102511.00
2019-03-22T00:56:03.447Z,102518.00
2019-03-22T00:58:38.647Z,102513.00
2019-03-22T01:01:09.628Z,102512.00
2019-03-22T01:03:40.485Z,102511.00
2019-03-22T01:06:11.679Z,102513.00
2019-03-22T01:08:42.578Z,102513.00
2019-03-22T01:11:13.459Z,102513.00
2019-03-22T01:13:46.806Z,102501.00
2019-03-22T01:16:16.972Z,102508.00
2019-03-22T01:18:47.822Z,102503.00
2019-03-22T01:21:18.752Z,102493.00
2019-03-22T01:23:49.963Z,102497.00
2019-03-22T01:26:20.910Z,102492.00
2019-03-22T01:28:51.778Z,102490.00
2019-03-22T01:31:22.693Z,102499.00
2019-03-22T01:33:53.896Z,102508.00
2019-03-22T01:36:27.559Z,102511.00
2019-03-22T01:38:58.615Z,102509.00
2019-03-22T01:41:29.463Z,102509.00
2019-03-22T01:44:00.964Z,102507.00
2019-03-22T01:46:31.889Z,102505.00
2019-03-22T01:49:02.845Z,102486.00
2019-03-22T01:51:34.312Z,102493.00
2019-03-22T01:54:09.297Z,102498.00
2019-03-22T01:56:40.294Z,102494.00
2019-03-22T01:59:11.231Z,102488.00
2019-03-22T02:01:42.116Z,102488.00
2019-03-22T02:04:12.973Z,102489.00
2019-03-22T02:06:43.847Z,102489.00
2019-03-22T02:09:14.715Z,102499.00
2019-03-22T02:11:45.642Z,102495.00
2019-03-22T02:14:16.539Z,102487.00
2019-03-22T02:16:47.481Z,102493.00
2019-03-22T02:19:18.358Z,102486.00
2019-03-22T02:21:49.280Z,102488.00
2019-03-22T02:24:20.164Z,102483.00
2019-03-22T02:26:51.062Z,102479.00
2019-03-22T02:29:22.076Z,102477.00
2019-03-22T02:31:53.076Z,102478.00
2019-03-22T02:34:23.932Z,102474.00
2019-03-22T02:36:54.890Z,102482.00
2019-03-22T02:39:26.080Z,102484.00
2019-03-22T02:41:56.986Z,102474.00
2019-03-22T02:44:27.996Z,102478.00
2019-03-22T02:46:58.961Z,102475.00
2019-03-22T02:49:30.085Z,102474.00
2019-03-22T02:52:01.144Z,102479.00
2019-03-22T02:54:32.056Z,102473.00
2019-03-22T02:57:04.550Z,102473.00
2019-03-22T02:59:35.386Z,102481.00
2019-03-22T03:02:06.505Z,102483.00
2019-03-22T03:04:37.378Z,102474.00
2019-03-22T03:07:08.305Z,102466.00
2019-03-22T03:09:39.167Z,102476.00
2019-03-22T03:12:10.119Z,102475.00
2019-03-22T03:14:40.991Z,102469.00
2019-03-22T03:17:12.166Z,102457.00
2019-03-22T03:19:43.109Z,102453.00
2019-03-22T03:22:13.981Z,102464.00
2019-03-22T03:24:44.898Z,102461.00
2019-03-22T03:27:15.888Z,102460.00
2019-03-22T03:29:46.756Z,102451.00
2019-03-22T03:32:17.649Z,102461.00
2019-03-22T03:34:48.746Z,102456.00
2019-03-22T03:37:19.717Z,102465.00
2019-03-22T03:39:50.607Z,102468.00
2019-03-22T03:42:21.556Z,102465.00
2019-03-22T03:44:52.766Z,102465.00
2019-03-22T03:47:26.421Z,102465.00
2019-03-22T03:49:57.348Z,102459.00
2019-03-22T03:52:28.402Z,102458.00
2019-03-22T03:54:59.297Z,102459.00
2019-03-22T03:57:30.180Z,102454.00
2019-03-22T04:00:01.046Z,102459.00
2019-03-22T04:02:31.957Z,102471.00
2019-03-22T04:05:03.094Z,102476.00
2019-03-22T04:07:33.974Z,102467.00
2019-03-22T04:10:05.979Z,102460.00
2019-03-22T04:12:36.993Z,102449.00
2019-03-22T04:15:08.270Z,102454.00
2019-03-22T04:17:39.703Z,102455.00
2019-03-22T04:20:10.769Z,102445.00
2019-03-22T04:22:41.664Z,102449.00
2019-03-22T04:25:12.613Z,102454.00
2019-03-22T04:27:43.559Z,102445.00
2019-03-22T04:30:14.660Z,102459.00
2019-03-22T04:32:45.595Z,102458.00
2019-03-22T04:35:16.701Z,102474.00
2019-03-22T04:37:47.828Z,102462.00
2019-03-22T04:40:28.972Z,102447.00
2019-03-22T04:43:04.638Z,102455.00
2019-03-22T04:45:37.418Z,102454.00
2019-03-22T04:48:14.220Z,102461.00
2019-03-22T04:50:47.662Z,102455.00
2019-03-22T04:53:22.046Z,102453.00
2019-03-22T04:55:57.030Z,102457.00
2019-03-22T04:58:30.616Z,102472.00
2019-03-22T05:01:03.795Z,102467.00
2019-03-22T05:03:36.452Z,102464.00
2019-03-22T05:06:10.508Z,102463.00
2019-03-22T05:08:42.826Z,102458.00
2019-03-22T05:11:16.872Z,102463.00
2019-03-22T05:13:50.834Z,102475.00
2019-03-22T05:16:23.579Z,102472.00
2019-03-22T05:18:56.265Z,102475.00
2019-03-22T05:21:28.661Z,102481.00
2019-03-22T05:24:02.611Z,102488.00
2019-03-22T05:26:36.155Z,102487.00
2019-03-22T05:29:10.093Z,102482.00
2019-03-22T05:32:09.267Z,102490.00
2019-03-22T05:34:40.167Z,102488.00
2019-03-22T05:37:10.973Z,102498.00
2019-03-22T05:39:43.396Z,102497.00
2019-03-22T05:42:14.321Z,102500.00
2019-03-22T05:44:45.326Z,102484.00
2019-03-22T05:47:16.157Z,102495.00
2019-03-22T05:49:47.149Z,102500.00
2019-03-22T05:52:17.940Z,102478.00
2019-03-22T05:54:48.811Z,102501.00
2019-03-22T05:57:19.650Z,102480.00
2019-03-22T05:59:51.010Z,102493.00
2019-03-22T06:02:21.928Z,102500.00
2019-03-22T06:04:52.850Z,102493.00
2019-03-22T06:07:24.000Z,102501.00
2019-03-22T06:09:54.884Z,102513.00
2019-03-22T06:12:26.186Z,102518.00
2019-03-22T06:14:57.342Z,102517.00
2019-03-22T06:17:28.552Z,102520.00
2019-03-22T06:19:59.652Z,102521.00
2019-03-22T06:22:30.678Z,102521.00
2019-03-22T06:25:02.997Z,102526.00
2019-03-22T06:27:33.978Z,102524.00
2019-03-22T06:30:06.108Z,102511.00
2019-03-22T06:32:37.141Z,102511.00
2019-03-22T06:35:08.158Z,102521.00
2019-03-22T06:37:39.567Z,102527.00
2019-03-22T06:40:11.088Z,102526.00
2019-03-22T06:42:42.238Z,102530.00
2019-03-22T06:45:13.239Z,102525.00
2019-03-22T06:47:44.291Z,102531.00
2019-03-22T06:50:15.381Z,102518.00
2019-03-22T06:52:46.391Z,102518.00
2019-03-22T06:55:17.379Z,102530.00
2019-03-22T06:57:48.639Z,102515.00
2019-03-22T07:00:19.728Z,102514.00
2019-03-22T07:02:50.773Z,102518.00
2019-03-22T07:05:21.750Z,102520.00
2019-03-22T07:07:52.960Z,102520.00
2019-03-22T07:10:24.111Z,102531.00
2019-03-22T07:12:55.435Z,102536.00
2019-03-22T07:15:26.532Z,102538.00
2019-03-22T07:17:57.387Z,102531.00
2019-03-22T07:20:28.608Z,102533.00
2019-03-22T07:22:59.819Z,102524.00
2019-03-22T07:25:33.814Z,102529.00
2019-03-22T07:28:04.955Z,102529.00
2019-03-22T07:30:36.248Z,102538.00
2019-03-22T07:33:07.360Z,102537.00
2019-03-22T07:35:38.648Z,102535.00
2019-03-22T07:38:09.853Z,102544.00
2019-03-22T07:40:41.104Z,102543.00
2019-03-22T07:43:12.135Z,102546.00
2019-03-22T07:45:44.398Z,102530.00
2019-03-22T07:48:15.581Z,102518.00
2019-03-22T07:50:46.560Z,102520.00
2019-03-22T07:53:17.713Z,102519.00
2019-03-22T07:55:48.717Z,102513.00
2019-03-22T07:58:19.860Z,102504.00
2019-03-22T08:00:51.003Z,102516.00
2019-03-22T08:03:22.263Z,102519.00
2019-03-22T08:05:53.267Z,102524.00
2019-03-22T08:08:25.380Z,102523.00
2019-03-22T08:10:56.271Z,102530.00
2019-03-22T08:13:27.300Z,102517.00
2019-03-22T08:15:58.338Z,102500.00
2019-03-22T08:18:29.341Z,102506.00
2019-03-22T08:21:01.044Z,102504.00
2019-03-22T08:23:32.235Z,102503.00
2019-03-22T08:26:06.210Z,102497.00
2019-03-22T08:28:37.470Z,102501.00
2019-03-22T08:31:08.603Z,102501.00
2019-03-22T08:33:40.004Z,102510.00
2019-03-22T08:36:14.960Z,102508.00
2019-03-22T08:38:45.823Z,102501.00
2019-03-22T08:41:16.934Z,102499.00
2019-03-22T08:43:47.900Z,102494.00
2019-03-22T08:46:22.012Z,102499.00
2019-03-22T08:48:53.047Z,102493.00
2019-03-22T08:51:24.326Z,102480.00
2019-03-22T08:53:55.883Z,102478.00
2019-03-22T08:56:26.982Z,102478.00
2019-03-22T08:59:00.348Z,102478.00
2019-03-22T09:01:31.417Z,102475.00
2019-03-22T09:04:02.388Z,102478.00
2019-03-22T09:06:33.558Z,102479.00
2019-03-22T09:09:06.919Z,102475.00
2019-03-22T09:11:40.367Z,102483.00
2019-03-22T09:14:11.249Z,102482.00
2019-03-22T09:16:42.447Z,102482.00
2019-03-22T09:19:13.894Z,102475.00
2019-03-22T09:21:44.808Z,102469.00
2019-03-22T09:24:15.808Z,102467.00
2019-03-22T09:26:47.895Z,102453.00
2019-03-22T09:29:19.841Z,102468.00
2019-03-22T09:31:53.479Z,102450.00
2019-03-22T09:34:33.104Z,102462.00
2019-03-22T09:36:56.190Z,102452.00
2019-03-22T09:39:27.357Z,102445.00
2019-03-22T09:41:58.475Z,102434.00
2019-03-22T09:44:42.367Z,102437.00
2019-03-22T09:47:02.299Z,102434.00
2019-03-22T09:49:33.646Z,102435.00
2019-03-22T09:52:04.788Z,102426.00
2019-03-22T09:54:35.821Z,102428.00
2019-03-22T09:57:06.966Z,102421.00
2019-03-22T09:59:38.135Z,102428.00
2019-03-22T10:02:08.972Z,102432.00
2019-03-22T10:04:39.989Z,102429.00
2019-03-22T10:07:13.686Z,102433.00
2019-03-22T10:09:44.849Z,102425.00
2019-03-22T10:12:15.743Z,102420.00
2019-03-22T10:14:46.887Z,102424.00
2019-03-22T10:17:17.988Z,102415.00
2019-03-22T10:19:48.750Z,102415.00
2019-03-22T10:22:19.841Z,102409.00
2019-03-22T10:24:50.648Z,102414.00
2019-03-22T10:27:21.686Z,102412.00
2019-03-22T10:29:52.727Z,102399.00
2019-03-22T10:32:24.005Z,102410.00
2019-03-22T10:34:55.321Z,102402.00
2019-03-22T10:37:26.517Z,102402.00
2019-03-22T10:40:00.726Z,102404.00
2019-03-22T10:42:31.970Z,102396.00
2019-03-22T10:45:03.411Z,102400.00
2019-03-22T10:47:34.536Z,102391.00
2019-03-22T10:50:06.380Z,102393.00
2019-03-22T10:52:37.429Z,102386.00
2019-03-22T10:55:28.384Z,102375.00
2019-03-22T10:57:41.248Z,102385.00
2019-03-22T11:00:14.769Z,102372.00
2019-03-22T11:02:48.560Z,102376.00
2019-03-22T11:05:19.563Z,102368.00
2019-03-22T11:07:50.548Z,102372.00
2019-03-22T11:10:21.622Z,102362.00
2019-03-22T11:12:52.733Z,102366.00
2019-03-22T11:15:24.052Z,102363.00
2019-03-22T11:17:55.192Z,102365.00
2019-03-22T11:20:26.263Z,102348.00
2019-03-22T11:22:57.368Z,102356.00
2019-03-22T11:25:28.756Z,102341.00
2019-03-22T11:27:59.964Z,102335.00
2019-03-22T11:30:33.784Z,102343.00
2019-03-22T11:33:05.043Z,102330.00
2019-03-22T11:35:37.188Z,102331.00
2019-03-22T11:38:08.857Z,102332.00
2019-03-22T11:40:40.003Z,102325.00
2019-03-22T11:43:13.868Z,102315.00
2019-03-22T11:45:44.987Z,102317.00
2019-03-22T11:48:16.238Z,102312.00
2019-03-22T11:50:47.476Z,102309.00
2019-03-22T11:53:18.751Z,102304.00
2019-03-22T11:55:49.996Z,102306.00
2019-03-22T11:58:21.086Z,102305.00
2019-03-22T12:00:52.309Z,102298.00
2019-03-22T12:03:23.328Z,102293.00
2019-03-22T12:05:54.431Z,102285.00
2019-03-22T12:08:25.639Z,102285.00
2019-03-22T12:10:56.866Z,102288.00
2019-03-22T12:13:28.151Z,102288.00
2019-03-22T12:15:59.302Z,102280.00
2019-03-22T12:18:30.528Z,102270.00
2019-03-22T12:21:01.632Z,102270.00
2019-03-22T12:23:32.712Z,102273.00
2019-03-22T12:26:03.719Z,102274.00
2019-03-22T12:28:34.699Z,102250.00
2019-03-22T12:31:05.929Z,102249.00
2019-03-22T12:33:37.087Z,102250.00
2019-03-22T12:36:08.296Z,102242.00
2019-03-22T12:38:39.700Z,102240.00
2019-03-22T12:41:10.795Z,102233.00
2019-03-22T12:43:42.151Z,102231.00
2019-03-22T12:46:15.852Z,102227.00
2019-03-22T12:48:46.898Z,102224.00
2019-03-22T12:51:18.175Z,102207.00
2019-03-22T12:53:49.313Z,102217.00
2019-03-22T12:56:20.581Z,102212.00
2019-03-22T12:58:51.491Z,102200.00
2019-03-22T13:01:22.508Z,102209.00
2019-03-22T13:03:53.517Z,102200.00
2019-03-22T13:06:25.102Z,102197.00
2019-03-22T13:08:56.285Z,102191.00
2019-03-22T13:11:27.427Z,102182.00
2019-03-22T13:13:58.767Z,102193.00
2019-03-22T13:16:30.103Z,102181.00
2019-03-22T13:19:01.354Z,102174.00
2019-03-22T13:21:32.524Z,102175.00
2019-03-22T13:24:03.737Z,102178.00
2019-03-22T13:26:35.105Z,102176.00
2019-03-22T13:29:06.347Z,102167.00
2019-03-22T13:31:37.472Z,102173.00
2019-03-22T13:34:08.779Z,102163.00
2019-03-22T13:36:40.488Z,102166.00
2019-03-22T13:39:13.522Z,102160.00
2019-03-22T13:41:44.590Z,102162.00
2019-03-22T13:44:15.746Z,102159.00
2019-03-22T13:46:47.034Z,102158.00
2019-03-22T13:49:18.011Z,102161.00
2019-03-22T13:51:48.953Z,102149.00
2019-03-22T13:54:20.051Z,102144.00
2019-03-22T13:56:51.330Z,102142.00
2019-03-22T13:59:22.515Z,102137.00
2019-03-22T14:01:53.902Z,102132.00
2019-03-22T14:04:24.874Z,102129.00
2019-03-22T14:06:56.448Z,102122.00
2019-03-22T14:09:30.145Z,102118.00
2019-03-22T14:12:03.224Z,102125.00
2019-03-22T14:14:34.614Z,102116.00
2019-03-22T14:17:05.741Z,102116.00
2019-03-22T14:19:39.224Z,102104.00
2019-03-22T14:22:10.235Z,102112.00
2019-03-22T14:24:41.570Z,102106.00
2019-03-22T14:27:12.907Z,102102.00
2019-03-22T14:29:44.350Z,102105.00
2019-03-22T14:32:18.321Z,102109.00
2019-03-22T14:34:49.541Z,102101.00
2019-03-22T14:37:20.900Z,102090.00
2019-03-22T14:39:52.289Z,102092.00
2019-03-22T14:42:23.442Z,102095.00
2019-03-22T14:44:57.109Z,102095.00
2019-03-22T14:47:30.387Z,102083.00
2019-03-22T14:50:01.529Z,102089.00
2019-03-22T14:52:32.655Z,102076.00
2019-03-22T14:55:03.992Z,102069.00
2019-03-22T14:57:35.096Z,102070.00
2019-03-22T15:00:07.064Z,102068.00
2019-03-22T15:02:38.242Z,102051.00
2019-03-22T15:05:13.178Z,102058.00
2019-03-22T15:07:47.297Z,102054.00
2019-03-22T15:10:21.436Z,102043.00
2019-03-22T15:12:53.063Z,102044.00
2019-03-22T15:15:46.148Z,102050.00
2019-03-22T15:18:45.056Z,102041.00
2019-03-22T15:21:31.374Z,102036.00
2019-03-22T15:24:21.482Z,102041.00
2019-03-22T15:27:17.099Z,102039.00
2019-03-22T15:30:01.536Z,102037.00
2019-03-22T15:32:59.522Z,102024.00
2019-03-22T15:35:45.906Z,102027.00
2019-03-22T15:38:26.716Z,102027.00
2019-03-22T15:40:58.321Z,102031.00
2019-03-22T15:43:29.466Z,102023.00
2019-03-22T15:46:00.754Z,102017.00
2019-03-22T15:48:31.923Z,102014.00
2019-03-22T15:51:02.875Z,102014.00
2019-03-22T15:53:34.315Z,102018.00
2019-03-22T15:56:05.865Z,102011.00
2019-03-22T15:58:37.945Z,102016.00
2019-03-22T16:01:10.823Z,102010.00
2019-03-22T16:03:44.417Z,102011.00
2019-03-22T16:06:14.932Z,102009.00
2019-03-22T16:08:46.202Z,102000.00
2019-03-22T16:11:17.488Z,101993.00
2019-03-22T16:13:48.869Z,101998.00
2019-03-22T16:16:20.454Z,101996.00
2019-03-22T16:18:54.683Z,101988.00
2019-03-22T16:21:26.102Z,101984.00
2019-03-22T16:24:00.128Z,101988.00
2019-03-22T16:26:31.532Z,101977.00
2019-03-22T16:29:05.730Z,101977.00
2019-03-22T16:31:37.534Z,101981.00
2019-03-22T16:34:08.928Z,101975.00
2019-03-22T16:36:40.517Z,101973.00
2019-03-22T16:39:14.791Z,101983.00
2019-03-22T16:41:46.141Z,101976.00
2019-03-22T16:44:17.411Z,101967.00
2019-03-22T16:46:50.953Z,101981.00
2019-03-22T16:49:22.397Z,101978.00
2019-03-22T16:51:53.747Z,101974.00
2019-03-22T16:54:25.040Z,101971.00
2019-03-22T16:56:56.295Z,101968.00
2019-03-22T16:59:28.178Z,101956.00
2019-03-22T17:01:59.328Z,101977.00
2019-03-22T17:04:30.444Z,101963.00
2019-03-22T17:07:02.084Z,101966.00
2019-03-22T17:09:33.364Z,101954.00
2019-03-22T17:12:04.573Z,101963.00
2019-03-22T17:14:36.072Z,101952.00
2019-03-22T17:17:14.991Z,101950.00
2019-03-22T17:19:46.424Z,101956.00
2019-03-22T17:22:17.641Z,101959.00
2019-03-22T17:24:48.930Z,101951.00
2019-03-22T17:27:20.330Z,101959.00
2019-03-22T17:29:51.563Z,101955.00
2019-03-22T17:32:22.859Z,101943.00
2019-03-22T17:34:53.914Z,101949.00
2019-03-22T17:37:28.073Z,101940.00
2019-03-22T17:39:59.110Z,101935.00
2019-03-22T17:42:30.097Z,101937.00
2019-03-22T17:45:01.291Z,101931.00
2019-03-22T17:47:32.329Z,101935.00
2019-03-22T17:50:03.113Z,101939.00
2019-03-22T17:52:33.947Z,101929.00
2019-03-22T17:55:08.035Z,101942.00
2019-03-22T17:57:38.081Z,101931.00
2019-03-22T18:00:09.154Z,101927.00
2019-03-22T18:02:40.007Z,101924.00
2019-03-22T18:05:11.096Z,101930.00
2019-03-22T18:07:41.949Z,101929.00
2019-03-22T18:10:12.942Z,101927.00
2019-03-22T18:12:43.765Z,101925.00
2019-03-22T18:15:15.119Z,101929.00
2019-03-22T18:17:46.016Z,101930.00
2019-03-22T18:20:17.649Z,101927.00
2019-03-22T18:22:48.478Z,101923.00
2019-03-22T18:25:20.762Z,101925.00
2019-03-22T18:27:51.795Z,101927.00
2019-03-22T18:30:22.615Z,101925.00
2019-03-22T18:32:53.596Z,101932.00
2019-03-22T18:35:24.511Z,101928.00
2019-03-22T18:37:55.925Z,101923.00
2019-03-22T18:40:26.755Z,101922.00
2019-03-22T18:42:57.881Z,101929.00
2019-03-22T18:45:28.810Z,101930.00
2019-03-22T18:47:59.999Z,101934.00
2019-03-22T18:50:32.378Z,101932.00
2019-03-22T18:53:03.240Z,101929.00
2019-03-22T18:55:34.180Z,101930.00
2019-03-22T18:58:05.087Z,101929.00
2019-03-22T19:00:36.048Z,101936.00
2019-03-22T19:03:07.158Z,101929.00
2019-03-22T19:05:38.142Z,101936.00
2019-03-22T19:08:11.993Z,101925.00
2019-03-22T19:10:43.040Z,101931.00
2019-03-22T19:13:13.901Z,101925.00
2019-03-22T19:15:44.871Z,101922.00
2019-03-22T19:18:15.807Z,101939.00
2019-03-22T19:20:46.743Z,101932.00
2019-03-22T19:23:17.706Z,101933.00
2019-03-22T19:25:48.636Z,101931.00
2019-03-22T19:28:19.564Z,101935.00
2019-03-22T19:30:50.627Z,101936.00
2019-03-22T19:33:21.826Z,101934.00
2019-03-22T19:35:52.704Z,101930.00
2019-03-22T19:38:24.743Z,101928.00
2019-03-22T19:40:55.652Z,101934.00
2019-03-22T19:43:26.829Z,101932.00
2019-03-22T19:45:57.735Z,101929.00
2019-03-22T19:48:28.648Z,101931.00
2019-03-22T19:51:03.080Z,101935.00
2019-03-22T19:53:36.533Z,101932.00
2019-03-22T19:56:07.620Z,101932.00
2019-03-22T19:58:38.688Z,101929.00
2019-03-22T20:01:09.609Z,101932.00
2019-03-22T20:03:40.511Z,101925.00
2019-03-22T20:06:11.488Z,101928.00
2019-03-22T20:08:42.537Z,101921.00
2019-03-22T20:11:13.519Z,101935.00
2019-03-22T20:13:44.465Z,101924.00
2019-03-22T20:16:15.424Z,101937.00
2019-03-22T20:18:46.302Z,101943.00
2019-03-22T20:21:17.359Z,101934.00
2019-03-22T20:23:53.534Z,101931.00
2019-03-22T20:26:21.023Z,101933.00
2019-03-22T20:28:53.289Z,101932.00
2019-03-22T20:31:24.283Z,101930.00
2019-03-22T20:33:55.127Z,101925.00
2019-03-22T20:36:26.070Z,101925.00
2019-03-22T20:38:57.021Z,101920.00
2019-03-22T20:41:27.929Z,101915.00
2019-03-22T20:44:00.952Z,101924.00
2019-03-22T20:46:31.874Z,101921.00
2019-03-22T20:49:05.064Z,101929.00
2019-03-22T20:51:35.423Z,101921.00
2019-03-22T20:54:06.336Z,101922.00
2019-03-22T20:56:37.308Z,101917.00
2019-03-22T20:59:08.252Z,101924.00
2019-03-22T21:01:39.156Z,101924.00
2019-03-22T21:04:10.018Z,101934.00
2019-03-22T21:06:40.972Z,101927.00
2019-03-22T21:09:12.105Z,101916.00
2019-03-22T21:11:42.992Z,101921.00
2019-03-22T21:14:14.143Z,101923.00
2019-03-22T21:16:45.045Z,101918.00
2019-03-22T21:19:16.051Z,101924.00
2019-03-22T21:21:46.990Z,101926.00
2019-03-22T21:24:17.865Z,101919.00
2019-03-22T21:26:48.712Z,101906.00
2019-03-22T21:29:19.596Z,101917.00
2019-03-22T21:31:50.625Z,101904.00
2019-03-22T21:34:21.448Z,101907.00
2019-03-22T21:36:52.379Z,101903.00
2019-03-22T21:39:23.293Z,101912.00
2019-03-22T21:41:54.563Z,101906.00
2019-03-22T21:44:25.549Z,101901.00
2019-03-22T21:46:59.514Z,101894.00
2019-03-22T21:49:30.623Z,101899.00
2019-03-22T21:52:01.903Z,101893.00
2019-03-22T21:54:33.035Z,101890.00
2019-03-22T21:57:04.033Z,101889.00
2019-03-22T21:59:34.911Z,101892.00
2019-03-22T22:02:05.764Z,101889.00
2019-03-22T22:04:37.472Z,101887.00
2019-03-22T22:07:08.535Z,101873.00
2019-03-22T22:09:39.457Z,101876.00
2019-03-22T22:12:10.620Z,101874.00
2019-03-22T22:14:41.848Z,101882.00
2019-03-22T22:17:13.087Z,101877.00
2019-03-22T22:19:43.961Z,101879.00
2019-03-22T22:22:14.886Z,101876.00
2019-03-22T22:24:45.802Z,101873.00
2019-03-22T22:27:16.773Z,101871.00
2019-03-22T22:29:47.896Z,101862.00
2019-03-22T22:32:18.949Z,101862.00
2019-03-22T22:34:50.066Z,101864.00
2019-03-22T22:37:21.170Z,101853.00
2019-03-22T22:39:52.135Z,101858.00
2019-03-22T22:42:23.159Z,101853.00
2019-03-22T22:44:53.936Z,101861.00
2019-03-22T22:47:24.834Z,101855.00
2019-03-22T22:49:55.727Z,101855.00
2019-03-22T22:52:26.883Z,101852.00
2019-03-22T22:54:57.922Z,101845.00
2019-03-22T22:57:28.775Z,101843.00
2019-03-22T23:00:06.059Z,101846.00
2019-03-22T23:02:32.356Z,101849.00
2019-03-22T23:05:04.391Z,101831.00
2019-03-22T23:07:35.906Z,101826.00
2019-03-22T23:10:07.503Z,101835.00
2019-03-22T23:12:38.427Z,101825.00
2019-03-22T23:15:09.312Z,101823.00
2019-03-22T23:17:40.226Z,101826.00
2019-03-22T23:20:11.391Z,101818.00
2019-03-22T23:22:42.343Z,101809.00
2019-03-22T23:25:15.433Z,101821.00
2019-03-22T23:27:46.259Z,101813.00
2019-03-22T23:30:17.582Z,101809.00
2019-03-22T23:32:48.488Z,101797.00
2019-03-22T23:35:19.418Z,101801.00
2019-03-22T23:37:50.518Z,101802.00
2019-03-22T23:40:21.645Z,101804.00
2019-03-22T23:42:52.524Z,101807.00
2019-03-22T23:45:23.445Z,101789.00
2019-03-22T23:47:54.783Z,101781.00
2019-03-22T23:50:25.593Z,101789.00
2019-03-22T23:52:58.224Z,101793.00
2019-03-22T23:55:29.296Z,101791.00
2019-03-22T23:58:00.240Z,101791.00
